Time,TemperatureF,DewpointF,PressureIn,WindDirection,WindDirectionDegrees,WindSpeedMPH,WindSpeedGustMPH,Humidity,HourlyPrecipIn,Conditions,Clouds,dailyrainin,SoftwareType,DateUTC
2013-05-07 00:00:00,54.4,51.0,29.94,WNW,290,0.0,0.0,88,0.00,,,0.00,weatherlink.com 1.10,2013-05-07 07:00:00,
2013-05-07 00:15:00,54.4,51.0,29.94,WNW,290,0.0,1.0,88,0.00,,,0.00,weatherlink.com 1.10,2013-05-07 07:15:00,
2013-05-07 00:30:00,54.2,51.0,29.94,WNW,290,0.0,0.0,88,0.00,,,0.00,weatherlink.com 1.10,2013-05-07 07:30:00,
2013-05-07 00:45:00,53.7,50.0,29.95,WNW,290,0.0,0.0,88,0.00,,,0.00,weatherlink.com 1.10,2013-05-07 07:45:00,
2013-05-07 01:00:00,53.1,50.0,29.94,WNW,290,0.0,0.0,90,0.00,,,0.00,weatherlink.com 1.10,2013-05-07 08:00:00,
2013-05-07 01:15:00,52.8,50.0,29.95,WNW,290,0.0,0.0,91,0.00,,,0.00,weatherlink.com 1.10,2013-05-07 08:15:00,
2013-05-07 01:30:00,52.9,50.0,29.94,WNW,290,0.0,0.0,91,0.00,,,0.00,weatherlink.com 1.10,2013-05-07 08:30:00,
2013-05-07 01:45:00,52.5,50.0,29.94,WNW,290,0.0,0.0,91,0.00,,,0.00,weatherlink.com 1.10,2013-05-07 08:45:00,
2013-05-07 02:00:00,52.0,50.0,29.94,WNW,290,0.0,0.0,91,0.00,,,0.00,weatherlink.com 1.10,2013-05-07 09:00:00,
2013-05-07 02:15:00,51.9,50.0,29.94,WNW,290,0.0,0.0,92,0.00,,,0.00,weatherlink.com 1.10,2013-05-07 09:15:00,
2013-05-07 02:30:00,51.5,49.0,29.94,WNW,290,0.0,0.0,92,0.00,,,0.00,weatherlink.com 1.10,2013-05-07 09:30:00,
2013-05-07 02:45:00,50.9,49.0,29.94,WNW,290,0.0,1.0,92,0.00,,,0.00,weatherlink.com 1.10,2013-05-07 09:45:00,
2013-05-07 03:00:00,50.5,49.0,29.94,WNW,290,0.0,0.0,93,0.00,,,0.00,weatherlink.com 1.10,2013-05-07 10:00:00,
2013-05-07 03:15:00,50.0,48.0,29.94,WNW,290,0.0,0.0,93,0.00,,,0.00,weatherlink.com 1.10,2013-05-07 10:15:00,
2013-05-07 03:30:00,50.8,49.0,29.94,WNW,290,0.0,1.0,94,0.00,,,0.00,weatherlink.com 1.10,2013-05-07 10:30:00,
2013-05-07 03:45:00,51.3,49.0,29.95,WNW,290,0.0,1.0,93,0.00,,,0.00,weatherlink.com 1.10,2013-05-07 10:45:00,
2013-05-07 04:00:00,50.8,49.0,29.95,WNW,290,0.0,2.0,93,0.00,,,0.00,weatherlink.com 1.10,2013-05-07 11:00:00,
2013-05-07 04:15:00,51.0,49.0,29.95,WNW,290,0.0,0.0,93,0.00,,,0.00,weatherlink.com 1.10,2013-05-07 11:15:00,
2013-05-07 04:30:00,51.4,50.0,29.95,WNW,290,0.0,0.0,93,0.00,,,0.00,weatherlink.com 1.10,2013-05-07 11:30:00,
2013-05-07 04:45:00,51.9,50.0,29.95,WNW,290,0.0,0.0,93,0.00,,,0.00,weatherlink.com 1.10,2013-05-07 11:45:00,
2013-05-07 05:00:00,52.4,51.0,29.95,WNW,290,0.0,1.0,93,0.00,,,0.00,weatherlink.com 1.10,2013-05-07 12:00:00,
2013-05-07 05:15:00,52.4,50.0,29.95,WNW,290,0.0,1.0,92,0.00,,,0.00,weatherlink.com 1.10,2013-05-07 12:15:00,
2013-05-07 05:30:00,52.0,50.0,29.95,WNW,290,0.0,0.0,92,0.00,,,0.00,weatherlink.com 1.10,2013-05-07 12:30:00,
2013-05-07 05:45:00,51.9,50.0,29.95,WNW,290,0.0,0.0,93,0.00,,,0.00,weatherlink.com 1.10,2013-05-07 12:45:00,
2013-05-07 06:00:00,51.8,50.0,29.95,WNW,290,0.0,0.0,93,0.00,,,0.00,weatherlink.com 1.10,2013-05-07 13:00:00,
2013-05-07 06:15:00,52.0,50.0,29.96,WNW,290,0.0,0.0,94,0.00,,,0.00,weatherlink.com 1.10,2013-05-07 13:15:00,
2013-05-07 06:30:00,51.6,50.0,29.96,WNW,290,0.0,0.0,93,0.00,,,0.00,weatherlink.com 1.10,2013-05-07 13:30:00,
2013-05-07 06:45:00,51.3,49.0,29.96,WNW,290,0.0,1.0,93,0.00,,,0.00,weatherlink.com 1.10,2013-05-07 13:45:00,
2013-05-07 07:00:00,51.4,50.0,29.96,WNW,290,0.0,0.0,93,0.00,,,0.00,weatherlink.com 1.10,2013-05-07 14:00:00,
2013-05-07 07:15:00,51.6,49.0,29.97,WNW,290,0.0,1.0,92,0.00,,,0.00,weatherlink.com 1.10,2013-05-07 14:15:00,
2013-05-07 07:30:00,52.4,50.0,29.97,WNW,290,0.0,0.0,91,0.00,,,0.00,weatherlink.com 1.10,2013-05-07 14:30:00,
2013-05-07 07:46:00,53.5,51.0,29.98,WNW,290,0.0,0.0,90,0.00,,,0.00,weatherlink.com 1.10,2013-05-07 14:46:00,
2013-05-07 08:01:00,54.8,52.0,29.98,WNW,290,0.0,0.0,89,0.00,,,0.00,weatherlink.com 1.10,2013-05-07 15:01:00,
2013-05-07 08:16:00,56.1,52.0,29.98,WNW,290,0.0,1.0,86,0.00,,,0.00,weatherlink.com 1.10,2013-05-07 15:16:00,
2013-05-07 08:31:00,57.1,52.0,29.99,WNW,290,0.0,0.0,84,0.00,,,0.00,weatherlink.com 1.10,2013-05-07 15:31:00,
2013-05-07 08:46:00,58.0,53.0,29.99,WNW,291,0.0,0.0,83,0.00,,,0.00,weatherlink.com 1.10,2013-05-07 15:46:00,
2013-05-07 09:01:00,59.0,53.0,29.99,WNW,291,0.0,0.0,81,0.00,,,0.00,weatherlink.com 1.10,2013-05-07 16:01:00,
2013-05-07 09:16:00,59.8,54.0,29.99,West,271,0.0,3.0,80,0.00,,,0.00,weatherlink.com 1.10,2013-05-07 16:16:00,
2013-05-07 09:31:00,61.1,55.0,29.99,NW,316,2.0,5.0,79,0.00,,,0.00,weatherlink.com 1.10,2013-05-07 16:31:00,
2013-05-07 09:46:00,62.8,56.0,29.99,West,271,1.0,3.0,77,0.00,,,0.00,weatherlink.com 1.10,2013-05-07 16:46:00,
2013-05-07 10:01:00,64.5,56.0,29.99,WSW,257,3.0,4.0,73,0.00,,,0.00,weatherlink.com 1.10,2013-05-07 17:01:00,
2013-05-07 10:16:00,65.9,56.0,29.98,NNW,346,0.0,2.0,71,0.00,,,0.00,weatherlink.com 1.10,2013-05-07 17:16:00,
2013-05-07 10:31:00,65.3,55.0,29.98,NE,51,1.0,2.0,70,0.00,,,0.00,weatherlink.com 1.10,2013-05-07 17:31:00,
2013-05-07 10:46:00,66.0,56.0,29.98,NNE,26,0.0,4.0,69,0.00,,,0.00,weatherlink.com 1.10,2013-05-07 17:46:00,
2013-05-07 11:01:00,66.8,55.0,29.98,West,274,0.0,3.0,67,0.00,,,0.00,weatherlink.com 1.10,2013-05-07 18:01:00,
2013-05-07 11:16:00,69.0,57.0,29.98,SW,233,0.0,3.0,66,0.00,,,0.00,weatherlink.com 1.10,2013-05-07 18:16:00,
2013-05-07 11:31:00,70.6,57.0,29.98,SW,235,0.0,4.0,63,0.00,,,0.00,weatherlink.com 1.10,2013-05-07 18:31:00,
2013-05-07 11:46:00,69.5,55.0,29.98,WNW,282,1.0,4.0,61,0.00,,,0.00,weatherlink.com 1.10,2013-05-07 18:46:00,
2013-05-07 12:01:00,67.7,56.0,29.98,WSW,238,0.0,4.0,66,0.00,,,0.00,weatherlink.com 1.10,2013-05-07 19:01:00,
2013-05-07 12:16:00,70.3,57.0,29.98,SSE,153,2.0,5.0,62,0.00,,,0.00,weatherlink.com 1.10,2013-05-07 19:16:00,
2013-05-07 12:31:00,70.8,56.0,29.98,SW,225,2.0,9.0,60,0.00,,,0.00,weatherlink.com 1.10,2013-05-07 19:31:00,
2013-05-07 12:46:00,68.0,55.0,29.97,WSW,252,3.0,10.0,63,0.00,,,0.00,weatherlink.com 1.10,2013-05-07 19:46:00,
2013-05-07 13:01:00,66.4,55.0,29.97,WSW,240,5.0,8.0,66,0.00,,,0.00,weatherlink.com 1.10,2013-05-07 20:01:00,
2013-05-07 13:16:00,66.2,55.0,29.97,West,279,0.0,9.0,67,0.00,,,0.00,weatherlink.com 1.10,2013-05-07 20:16:00,
2013-05-07 13:31:00,66.9,54.0,29.97,West,268,4.0,7.0,63,0.00,,,0.00,weatherlink.com 1.10,2013-05-07 20:31:00,
2013-05-07 13:46:00,67.9,53.0,29.97,West,275,2.0,10.0,59,0.00,,,0.00,weatherlink.com 1.10,2013-05-07 20:46:00,
2013-05-07 14:01:00,68.1,53.0,29.97,West,280,3.0,7.0,59,0.00,,,0.00,weatherlink.com 1.10,2013-05-07 21:01:00,
2013-05-07 14:16:00,68.2,53.0,29.97,WNW,291,1.0,7.0,58,0.00,,,0.00,weatherlink.com 1.10,2013-05-07 21:16:00,
2013-05-07 14:32:00,68.0,53.0,29.97,WNW,296,1.0,8.0,59,0.00,,,0.00,weatherlink.com 1.10,2013-05-07 21:32:00,
2013-05-07 14:47:00,67.4,52.0,29.97,NW,325,0.0,8.0,59,0.00,,,0.00,weatherlink.com 1.10,2013-05-07 21:47:00,
2013-05-07 15:02:00,66.8,51.0,29.97,West,275,4.0,9.0,57,0.00,,,0.00,weatherlink.com 1.10,2013-05-07 22:02:00,
2013-05-07 15:17:00,67.2,51.0,29.96,SW,228,5.0,8.0,56,0.00,,,0.00,weatherlink.com 1.10,2013-05-07 22:17:00,
2013-05-07 15:32:00,68.8,51.0,29.96,WNW,287,6.0,10.0,54,0.00,,,0.00,weatherlink.com 1.10,2013-05-07 22:32:00,
2013-05-07 15:47:00,69.7,52.0,29.95,West,272,5.0,10.0,54,0.00,,,0.00,weatherlink.com 1.10,2013-05-07 22:47:00,
2013-05-07 16:02:00,70.4,50.0,29.95,NNW,333,7.0,12.0,48,0.00,,,0.00,weatherlink.com 1.10,2013-05-07 23:02:00,
2013-05-07 16:17:00,69.7,50.0,29.95,NW,306,1.0,8.0,49,0.00,,,0.00,weatherlink.com 1.10,2013-05-07 23:17:00,
2013-05-07 16:33:00,69.6,49.0,29.95,WSW,254,7.0,12.0,49,0.00,,,0.00,weatherlink.com 1.10,2013-05-07 23:33:00,
2013-05-07 16:47:00,69.2,49.0,29.95,WSW,249,5.0,10.0,49,0.00,,,0.00,weatherlink.com 1.10,2013-05-07 23:47:00,
2013-05-07 17:02:00,69.0,48.0,29.94,West,265,2.0,8.0,48,0.00,,,0.00,weatherlink.com 1.10,2013-05-08 00:02:00,
2013-05-07 17:17:00,68.9,48.0,29.95,WSW,255,7.0,10.0,48,0.00,,,0.00,weatherlink.com 1.10,2013-05-08 00:17:00,
2013-05-07 17:32:00,69.2,48.0,29.95,WNW,283,3.0,9.0,47,0.00,,,0.00,weatherlink.com 1.10,2013-05-08 00:32:00,
2013-05-07 17:47:00,68.5,48.0,29.95,West,278,3.0,10.0,48,0.00,,,0.00,weatherlink.com 1.10,2013-05-08 00:47:00,
2013-05-07 18:02:00,68.6,49.0,29.95,West,271,5.0,7.0,49,0.00,,,0.00,weatherlink.com 1.10,2013-05-08 01:02:00,
2013-05-07 18:17:00,67.1,49.0,29.95,West,259,2.0,11.0,52,0.00,,,0.00,weatherlink.com 1.10,2013-05-08 01:17:00,
2013-05-07 18:32:00,65.4,50.0,29.95,WNW,288,1.0,8.0,57,0.00,,,0.00,weatherlink.com 1.10,2013-05-08 01:32:00,
2013-05-07 18:47:00,64.3,50.0,29.95,NW,313,6.0,8.0,60,0.00,,,0.00,weatherlink.com 1.10,2013-05-08 01:47:00,
2013-05-07 19:02:00,63.2,50.0,29.95,WNW,289,2.0,7.0,63,0.00,,,0.00,weatherlink.com 1.10,2013-05-08 02:02:00,
2013-05-07 19:17:00,62.3,50.0,29.96,West,263,2.0,9.0,64,0.00,,,0.00,weatherlink.com 1.10,2013-05-08 02:17:00,
2013-05-07 19:32:00,61.3,50.0,29.96,West,271,0.0,4.0,66,0.00,,,0.00,weatherlink.com 1.10,2013-05-08 02:32:00,
2013-05-07 19:47:00,60.5,49.0,29.96,West,274,0.0,5.0,67,0.00,,,0.00,weatherlink.com 1.10,2013-05-08 02:47:00,
2013-05-07 20:02:00,59.6,49.0,29.97,WNW,284,0.0,3.0,69,0.00,,,0.00,weatherlink.com 1.10,2013-05-08 03:02:00,
2013-05-07 20:17:00,58.8,49.0,29.98,West,275,0.0,2.0,70,0.00,,,0.00,weatherlink.com 1.10,2013-05-08 03:17:00,
2013-05-07 20:32:00,57.8,50.0,29.98,West,275,0.0,0.0,74,0.00,,,0.00,weatherlink.com 1.10,2013-05-08 03:32:00,
2013-05-07 20:47:00,56.6,51.0,29.98,SE,133,0.0,4.0,80,0.00,,,0.00,weatherlink.com 1.10,2013-05-08 03:47:00,
2013-05-07 21:02:00,55.4,50.0,29.99,SE,133,0.0,0.0,82,0.00,,,0.00,weatherlink.com 1.10,2013-05-08 04:02:00,
2013-05-07 21:17:00,54.3,50.0,29.99,South,178,0.0,1.0,85,0.00,,,0.00,weatherlink.com 1.10,2013-05-08 04:17:00,
2013-05-07 21:32:00,53.3,50.0,29.99,SSE,150,0.0,3.0,87,0.00,,,0.00,weatherlink.com 1.10,2013-05-08 04:32:00,
2013-05-07 21:47:00,52.6,49.0,29.99,SSE,161,0.0,0.0,88,0.00,,,0.00,weatherlink.com 1.10,2013-05-08 04:47:00,
2013-05-07 22:02:00,52.0,49.0,29.99,South,170,0.0,0.0,90,0.00,,,0.00,weatherlink.com 1.10,2013-05-08 05:02:00,
2013-05-07 22:17:00,51.5,49.0,29.99,South,170,0.0,0.0,90,0.00,,,0.00,weatherlink.com 1.10,2013-05-08 05:17:00,
2013-05-07 22:32:00,51.0,49.0,30.00,SSE,163,0.0,0.0,91,0.00,,,0.00,weatherlink.com 1.10,2013-05-08 05:32:00,
2013-05-07 22:47:00,50.6,48.0,30.00,SSE,163,0.0,0.0,91,0.00,,,0.00,weatherlink.com 1.10,2013-05-08 05:47:00,
2013-05-07 23:02:00,50.4,48.0,30.00,South,169,0.0,0.0,92,0.00,,,0.00,weatherlink.com 1.10,2013-05-08 06:02:00,
2013-05-07 23:17:00,50.1,48.0,30.00,South,169,0.0,0.0,92,0.00,,,0.00,weatherlink.com 1.10,2013-05-08 06:17:00,
2013-05-07 23:32:00,49.9,48.0,30.01,South,183,0.0,0.0,93,0.00,,,0.00,weatherlink.com 1.10,2013-05-08 06:32:00,
2013-05-07 23:47:00,49.4,48.0,30.01,South,183,0.0,0.0,93,0.00,,,0.00,weatherlink.com 1.10,2013-05-08 06:47:00,